Time;durP1;ratioP1;P1;durP2;ratioP2;P2;SDS_P1;SDS_P2;PMS_P1;PMS_P2;Temp;Humidity;BMP_temperature;BMP_pressure;BME280_temperature;BME280_humidity;BME280_pressure;Samples;Min_cycle;Max_cycle;Signal;HPM_P1;HPM_P2
2022/08/25 00:00:20;;;;;;;12.43;11.10;;;19.20;99.90;;;19.37;100.00;101589.06;4936088;29;20930;-68
2022/08/25 00:02:49;;;;;;;13.00;11.40;;;19.20;99.90;;;19.27;100.00;101580.59;4935394;29;20491;-69
2022/08/25 00:05:30;;;;;;;12.33;10.53;;;19.20;99.90;;;19.27;100.00;101585.25;4934590;29;20494;-68
2022/08/25 00:08:01;;;;;;;12.77;11.33;;;19.10;99.90;;;19.27;100.00;101586.09;4941551;29;20435;-68
2022/08/25 00:10:31;;;;;;;11.17;9.97;;;19.10;99.90;;;19.20;100.00;101579.94;4936181;29;20524;-69
2022/08/25 00:13:00;;;;;;;13.23;10.47;;;19.10;99.90;;;19.26;100.00;101584.47;4938048;28;20431;-68
2022/08/25 00:15:31;;;;;;;16.00;10.63;;;19.10;99.90;;;19.20;100.00;101579.94;4936164;29;20507;-68
2022/08/25 00:18:00;;;;;;;14.30;10.43;;;19.10;99.90;;;19.23;100.00;101579.44;4938529;29;20441;-68
2022/08/25 00:20:31;;;;;;;13.27;10.33;;;19.10;99.90;;;19.22;100.00;101583.25;4934898;29;20436;-69
2022/08/25 00:23:01;;;;;;;12.50;10.87;;;19.10;99.90;;;19.18;100.00;101579.31;4928689;29;20530;-68
2022/08/25 00:25:30;;;;;;;12.03;10.67;;;19.00;99.90;;;19.18;100.00;101581.22;4931087;29;20516;-69
2022/08/25 00:27:59;;;;;;;11.57;10.37;;;19.00;99.90;;;19.17;100.00;101574.91;4927659;29;20436;-69
2022/08/25 00:30:35;;;;;;;13.10;11.70;;;19.00;99.90;;;19.09;100.00;101584.38;4937537;29;20873;-69
2022/08/25 00:33:04;;;;;;;12.17;10.87;;;19.00;99.90;;;19.13;100.00;101581.13;4939223;28;20579;-70
2022/08/25 00:35:35;;;;;;;13.20;11.43;;;19.00;99.90;;;19.01;100.00;101581.16;4933443;29;20444;-69
2022/08/25 00:38:04;;;;;;;20.67;11.50;;;18.90;99.90;;;19.04;100.00;101567.78;4930371;29;20540;-69
2022/08/25 00:40:33;;;;;;;12.80;11.20;;;18.90;99.90;;;18.99;100.00;101572.31;4935142;29;20821;-69
2022/08/25 00:43:02;;;;;;;11.47;10.07;;;18.90;99.90;;;19.02;100.00;101569.97;4936876;29;20461;-68
2022/08/25 00:45:30;;;;;;;14.37;10.57;;;18.90;99.90;;;18.90;100.00;101562.81;4945123;29;21037;-68
2022/08/25 00:48:00;;;;;;;16.20;10.30;;;18.80;99.90;;;18.91;100.00;101557.09;4938948;29;20430;-68
2022/08/25 00:50:32;;;;;;;15.53;11.07;;;18.80;99.90;;;18.90;100.00;101562.81;4940087;29;20444;-68
2022/08/25 00:53:05;;;;;;;19.20;10.90;;;18.80;99.90;;;18.98;100.00;101562.44;4937960;29;20464;-68
2022/08/25 00:55:40;;;;;;;13.87;10.83;;;18.80;99.90;;;18.95;100.00;101560.19;4947662;29;20422;-69
2022/08/25 00:58:16;;;;;;;16.47;11.70;;;18.80;99.90;;;18.87;100.00;101564.13;4940596;29;20448;-69
2022/08/25 01:00:51;;;;;;;13.83;10.20;;;18.70;99.90;;;18.85;100.00;101566.28;4939175;29;20538;-69
2022/08/25 01:03:20;;;;;;;15.20;12.67;;;18.70;99.90;;;18.89;100.00;101566.63;4939656;29;20586;-67
2022/08/25 01:06:05;;;;;;;16.00;10.97;;;18.70;99.90;;;18.92;100.00;101571.66;4938880;29;20454;-68
2022/08/25 01:08:35;;;;;;;14.20;11.47;;;18.80;99.90;;;18.82;100.00;101580.47;4946054;28;20514;-69
2022/08/25 01:11:08;;;;;;;14.93;11.73;;;18.70;99.90;;;18.93;100.00;101579.59;4939480;29;20523;-69
2022/08/25 01:13:43;;;;;;;15.00;11.20;;;18.70;99.90;;;18.81;100.00;101573.31;4941166;28;20491;-66
2022/08/25 01:16:15;;;;;;;14.40;9.60;;;18.70;99.90;;;18.83;100.00;101575.84;4939337;29;20848;-68
2022/08/25 01:18:49;;;;;;;12.83;11.50;;;18.70;99.90;;;18.79;100.00;101575.47;4936437;29;20836;-67
2022/08/25 01:21:23;;;;;;;13.90;10.07;;;18.70;99.90;;;18.76;100.00;101572.38;4939615;28;20779;-68
2022/08/25 01:23:53;;;;;;;13.43;11.53;;;18.60;99.90;;;18.66;100.00;101568.31;4937122;29;20475;-68
2022/08/25 01:26:26;;;;;;;12.00;10.80;;;18.60;99.90;;;18.63;100.00;101568.81;4939320;29;20437;-69
2022/08/25 01:31:48;;;;;;;15.70;11.77;;;18.50;99.90;;;18.57;100.00;101569.75;4929902;29;20440;-67
2022/08/25 01:34:20;;;;;;;13.20;11.83;;;18.50;99.90;;;18.67;100.00;101570.00;4940035;29;20436;-69
2022/08/25 01:36:51;;;;;;;14.37;12.70;;;18.50;99.90;;;18.59;100.00;101567.59;4934073;29;20472;-69
2022/08/25 01:39:20;;;;;;;11.47;10.33;;;18.50;99.90;;;18.56;100.00;101564.50;4930307;29;20559;-68
2022/08/25 01:42:33;;;;;;;12.27;10.63;;;18.50;99.90;;;18.54;100.00;101563.94;4940321;28;20429;-69
2022/08/25 01:45:02;;;;;;;11.70;10.53;;;18.50;99.90;;;18.58;100.00;101570.59;4932720;29;20460;-68
2022/08/25 01:47:32;;;;;;;14.23;11.70;;;18.50;99.90;;;18.58;100.00;101567.88;4932124;29;20468;-69
2022/08/25 01:50:01;;;;;;;14.97;11.30;;;18.50;99.90;;;18.56;100.00;101570.00;4932846;29;20466;-69
2022/08/25 01:52:42;;;;;;;15.70;12.10;;;18.40;99.90;;;18.49;100.00;101567.31;4935598;29;20471;-68
2022/08/25 01:55:12;;;;;;;16.07;11.90;;;18.40;99.90;;;18.47;100.00;101560.44;4940108;29;20447;-68
2022/08/25 01:57:41;;;;;;;13.80;11.00;;;18.40;99.90;;;18.46;100.00;101562.34;4934989;29;20471;-68
2022/08/25 02:00:13;;;;;;;15.60;12.17;;;18.40;99.90;;;18.54;100.00;101562.00;4937539;29;20448;-68
2022/08/25 02:02:47;;;;;;;12.83;11.53;;;18.40;99.90;;;18.42;100.00;101555.66;4936994;29;20481;-68
2022/08/25 02:05:21;;;;;;;13.83;11.90;;;18.30;99.90;;;18.39;100.00;101558.91;4935863;29;20440;-68
2022/08/25 02:07:53;;;;;;;13.30;11.40;;;18.30;99.90;;;18.34;100.00;101564.25;4937724;29;20451;-68
2022/08/25 02:10:23;;;;;;;19.83;13.23;;;18.30;99.90;;;18.34;100.00;101563.41;4935009;28;20540;-68
2022/08/25 02:12:52;;;;;;;13.53;11.30;;;18.20;99.90;;;18.29;100.00;101555.91;4924517;29;20800;-69
2022/08/25 02:15:22;;;;;;;11.53;10.43;;;18.20;99.90;;;18.34;100.00;101553.28;4935007;29;20476;-68
2022/08/25 02:17:51;;;;;;;13.07;11.77;;;18.20;99.90;;;18.35;100.00;101554.13;4930535;29;20543;-68
2022/08/25 02:20:22;;;;;;;12.50;11.20;;;18.20;99.90;;;18.27;100.00;101558.03;4931792;29;20473;-70
2022/08/25 02:22:53;;;;;;;13.67;11.37;;;18.20;99.90;;;18.23;100.00;101551.38;4935369;29;20461;-69
2022/08/25 02:25:24;;;;;;;12.70;11.40;;;18.10;99.90;;;18.25;100.00;101538.25;4932020;29;20478;-68
2022/08/25 02:27:54;;;;;;;15.93;12.80;;;18.10;99.90;;;18.23;100.00;101545.88;4925472;29;20436;-69
2022/08/25 02:30:23;;;;;;;14.27;12.40;;;18.10;99.90;;;18.22;100.00;101544.22;4935033;29;20472;-69
2022/08/25 02:32:52;;;;;;;27.70;12.17;;;18.10;99.90;;;18.25;100.00;101538.25;4936844;29;20461;-69
2022/08/25 02:35:22;;;;;;;13.10;11.47;;;18.10;99.90;;;18.28;100.00;101542.44;4934300;29;20452;-67
2022/08/25 02:37:53;;;;;;;12.30;11.03;;;18.10;99.90;;;18.30;100.00;101543.03;4931665;29;20444;-68
2022/08/25 02:40:23;;;;;;;14.07;12.50;;;18.20;99.90;;;18.25;100.00;101539.09;4936218;29;20773;-68
2022/08/25 02:42:52;;;;;;;15.17;12.30;;;18.10;99.90;;;18.26;100.00;101537.19;4932973;29;20565;-69
2022/08/25 02:45:21;;;;;;;15.77;12.00;;;18.10;99.90;;;18.22;100.00;101544.22;4930313;29;20466;-67
2022/08/25 02:47:51;;;;;;;17.43;12.23;;;18.10;99.90;;;18.17;100.00;101541.34;4936100;29;20446;-68
2022/08/25 02:50:20;;;;;;;14.83;12.00;;;18.00;99.90;;;18.12;100.00;101538.47;4936578;29;20459;-67
2022/08/25 02:52:51;;;;;;;14.93;12.60;;;18.00;99.90;;;18.09;100.00;101538.97;4936890;29;20468;-69
2022/08/25 02:55:22;;;;;;;15.23;12.17;;;18.00;99.90;;;18.14;100.00;101530.88;4936081;29;20520;-68
2022/08/25 02:57:51;;;;;;;15.17;13.27;;;18.00;99.90;;;18.14;100.00;101539.09;4940261;29;20462;-68
2022/08/25 03:00:21;;;;;;;14.00;11.73;;;18.00;99.90;;;18.24;100.00;101531.13;4941919;29;20459;-68
2022/08/25 03:02:50;;;;;;;20.97;13.00;;;18.00;99.90;;;18.23;100.00;101523.97;4944196;28;20443;-68
2022/08/25 03:05:20;;;;;;;17.80;13.93;;;18.00;99.90;;;18.11;100.00;101531.31;4943500;29;20463;-68
2022/08/25 03:07:49;;;;;;;14.30;12.90;;;18.00;99.90;;;18.08;100.00;101521.69;4943877;29;20941;-69
2022/08/25 03:10:23;;;;;;;16.00;12.60;;;18.00;99.90;;;17.98;100.00;101524.19;4938374;29;20445;-68
2022/08/25 03:12:52;;;;;;;16.30;13.20;;;17.90;99.90;;;17.97;100.00;101529.88;4949533;29;20488;-69
2022/08/25 03:15:21;;;;;;;22.20;13.63;;;17.80;99.90;;;18.00;100.00;101515.75;4944876;29;20443;-69
2022/08/25 03:17:50;;;;;;;16.00;14.40;;;17.80;99.90;;;18.00;100.00;101516.56;4935830;29;20460;-69
2022/08/25 03:20:19;;;;;;;19.43;13.43;;;17.80;99.90;;;18.06;100.00;101517.50;4946532;29;20495;-68
2022/08/25 03:22:48;;;;;;;18.80;15.70;;;17.90;99.90;;;17.93;100.00;101512.25;4938345;29;20464;-68
2022/08/25 03:28:09;;;;;;;16.60;15.00;;;17.80;99.90;;;17.90;100.00;101513.59;4936186;29;20539;-68
2022/08/25 03:30:38;;;;;;;21.30;14.77;;;17.80;99.90;;;18.01;100.00;101511.94;4957971;28;20909;-68
2022/08/25 03:33:07;;;;;;;16.30;14.70;;;17.80;99.90;;;17.94;100.00;101508.47;4942508;29;20481;-67
2022/08/25 03:35:36;;;;;;;17.97;15.57;;;17.80;99.90;;;17.92;100.00;101503.22;4941486;29;20459;-68
2022/08/25 03:38:06;;;;;;;17.20;14.60;;;17.80;99.90;;;17.94;100.00;101503.81;4946715;29;20444;-68
2022/08/25 03:40:35;;;;;;;16.67;13.70;;;17.80;99.90;;;17.89;100.00;101500.13;4944197;28;20448;-68
2022/08/25 03:43:05;;;;;;;21.83;14.27;;;17.80;99.90;;;17.97;100.00;101502.50;4944574;29;20453;-68
2022/08/25 03:45:34;;;;;;;20.10;15.40;;;17.80;99.90;;;17.98;100.00;101506.91;4944399;29;20443;-68
2022/08/25 03:48:04;;;;;;;18.27;15.70;;;17.80;99.90;;;17.92;100.00;101502.38;4950068;29;20544;-68
2022/08/25 03:50:33;;;;;;;22.40;16.00;;;17.80;99.90;;;17.94;100.00;101503.81;4952867;28;20467;-69
2022/08/25 03:53:03;;;;;;;19.77;15.30;;;17.80;99.90;;;18.00;100.00;101510.25;4944479;28;20491;-68
2022/08/25 03:55:32;;;;;;;24.40;16.30;;;17.80;99.90;;;17.99;100.00;101497.63;4935194;29;20427;-69
2022/08/25 03:58:01;;;;;;;28.97;17.20;;;17.80;99.90;;;17.99;100.00;101505.84;4943577;29;20436;-69
2022/08/25 04:00:31;;;;;;;24.00;17.80;;;17.80;99.90;;;18.05;100.00;101505.75;4939146;28;20576;-68
2022/08/25 04:03:00;;;;;;;27.83;16.90;;;17.90;99.90;;;17.98;100.00;101505.00;4941700;28;20442;-68
2022/08/25 04:05:29;;;;;;;29.20;17.03;;;17.80;99.90;;;18.01;100.00;101517.41;4945251;29;20464;-67
2022/08/25 04:08:01;;;;;;;32.70;16.90;;;17.80;99.90;;;18.10;100.00;101513.25;4936476;29;20458;-68
2022/08/25 04:10:30;;;;;;;26.80;18.23;;;17.90;99.90;;;18.06;100.00;101514.78;4936173;29;20418;-68
2022/08/25 04:13:00;;;;;;;22.80;17.60;;;17.90;99.90;;;18.09;100.00;101512.41;4940430;29;20467;-67
2022/08/25 04:15:31;;;;;;;34.20;18.57;;;17.90;99.90;;;18.17;100.00;101516.69;4937926;29;20937;-68
2022/08/25 04:18:00;;;;;;;27.47;19.33;;;17.90;99.90;;;18.14;100.00;101514.44;4936487;28;20794;-68
2022/08/25 04:20:29;;;;;;;29.90;18.80;;;17.90;99.90;;;18.13;100.00;101512.75;4935192;29;20423;-68
2022/08/25 04:23:00;;;;;;;24.90;17.70;;;18.00;99.90;;;18.09;100.00;101528.00;4943738;29;20468;-68
2022/08/25 04:25:29;;;;;;;30.00;17.83;;;17.90;99.90;;;18.05;100.00;101522.19;4935909;29;20520;-68
2022/08/25 04:27:58;;;;;;;26.93;19.00;;;17.90;99.90;;;18.09;100.00;101528.00;4944930;29;20429;-68
2022/08/25 04:30:27;;;;;;;29.20;20.10;;;17.90;99.90;;;18.11;100.00;101526.69;4933964;29;20423;-69
2022/08/25 04:32:57;;;;;;;30.40;19.47;;;17.90;99.90;;;18.10;100.00;101529.69;4933614;28;20479;-68
2022/08/25 04:35:26;;;;;;;32.10;19.90;;;17.90;99.90;;;18.18;100.00;101537.53;4941762;29;20988;-68
2022/08/25 04:37:55;;;;;;;38.13;17.30;;;18.00;99.90;;;18.20;100.00;101532.69;4938548;29;20436;-68
2022/08/25 04:40:25;;;;;;;25.80;16.70;;;18.00;99.90;;;18.20;100.00;101533.47;4934562;29;20818;-68
2022/08/25 04:42:57;;;;;;;31.83;20.63;;;18.00;99.90;;;18.11;100.00;101534.91;4934557;29;20442;-68
2022/08/25 04:45:25;;;;;;;25.30;17.70;;;18.00;99.90;;;18.18;100.00;101529.31;4939057;29;20483;-70
2022/08/25 04:47:59;;;;;;;28.70;19.40;;;18.00;99.90;;;18.19;100.00;101531.00;4933982;29;20503;-69
2022/08/25 04:50:30;;;;;;;27.50;17.83;;;18.00;99.90;;;18.30;100.00;101532.88;4940004;29;20428;-67
2022/08/25 04:53:01;;;;;;;33.37;19.70;;;18.00;99.90;;;18.30;100.00;101530.16;4932758;29;20900;-68
2022/08/25 04:55:30;;;;;;;32.63;20.70;;;18.10;99.90;;;18.28;100.00;101526.84;4940132;29;20806;-67
2022/08/25 04:57:59;;;;;;;25.03;16.40;;;18.10;99.90;;;18.38;100.00;101527.06;4936037;29;20437;-68
2022/08/25 05:00:28;;;;;;;30.30;18.97;;;18.20;99.90;;;18.37;100.00;101525.41;4946641;29;20460;-67
2022/08/25 05:02:57;;;;;;;23.03;18.53;;;18.20;99.90;;;18.44;100.00;101526.13;4934195;29;20468;-68
2022/08/25 05:05:26;;;;;;;22.53;16.77;;;18.20;99.90;;;18.44;100.00;101520.66;4942514;29;20455;-66
2022/08/25 05:07:56;;;;;;;29.97;19.13;;;18.20;99.90;;;18.52;100.00;101525.75;4933386;29;20427;-68
2022/08/25 05:10:25;;;;;;;21.23;15.07;;;18.30;99.90;;;18.50;100.00;101530.63;4931296;29;20437;-67
2022/08/25 05:12:54;;;;;;;25.00;16.90;;;18.30;99.90;;;18.46;100.00;101529.44;4933925;29;20440;-68
2022/08/25 05:18:14;;;;;;;26.33;16.70;;;18.30;99.90;;;18.55;100.00;101529.94;4933593;29;20532;-69
2022/08/25 05:20:43;;;;;;;26.90;18.30;;;18.30;99.90;;;18.56;100.00;101529.72;4940001;28;20471;-68
2022/08/25 05:23:14;;;;;;;26.50;17.60;;;18.40;99.90;;;18.58;100.00;101541.28;4933407;29;20479;-68
2022/08/25 05:25:44;;;;;;;24.13;18.07;;;18.40;99.90;;;18.54;100.00;101536.53;4935994;29;20442;-68
2022/08/25 05:28:13;;;;;;;27.93;18.33;;;18.40;99.90;;;18.54;100.00;101529.09;4936105;29;20887;-69
2022/08/25 05:30:44;;;;;;;21.93;15.90;;;18.40;99.90;;;18.69;100.00;101530.56;4939946;29;20432;-68
2022/08/25 05:33:15;;;;;;;27.27;17.10;;;18.40;99.90;;;18.85;100.00;101532.53;4954576;23;20576;-75
2022/08/25 05:35:44;;;;;;;25.20;17.37;;;18.50;99.90;;;18.83;100.00;101548.41;4938548;29;20406;-74
2022/08/25 05:38:14;;;;;;;24.60;16.33;;;18.60;99.90;;;18.82;100.00;101549.47;4935933;29;20449;-75
2022/08/25 05:40:44;;;;;;;23.63;17.37;;;18.60;99.90;;;18.87;100.00;101552.34;4937548;29;20447;-75
2022/08/25 05:43:14;;;;;;;27.57;16.93;;;18.60;99.90;;;18.92;100.00;101555.19;4937247;29;20439;-73
2022/08/25 05:45:43;;;;;;;27.53;18.53;;;18.70;99.90;;;18.82;100.00;101549.47;4937339;29;21032;-73
2022/08/25 05:48:19;;;;;;;25.43;17.47;;;18.60;99.90;;;18.91;100.00;101561.75;4935582;29;20424;-75
2022/08/25 05:50:52;;;;;;;25.73;17.93;;;18.70;99.90;;;18.87;100.00;101564.13;4938552;29;20447;-74
2022/08/25 05:53:23;;;;;;;33.03;19.70;;;18.70;99.90;;;18.92;100.00;101560.69;4937381;29;20472;-73
2022/08/25 05:55:54;;;;;;;27.10;18.60;;;18.70;99.90;;;18.93;100.00;101570.53;4933938;29;20459;-73
2022/08/25 05:58:27;;;;;;;27.37;18.77;;;18.70;99.90;;;19.02;100.00;101567.22;4936810;29;20535;-76
2022/08/25 06:02:39;;;;;;;33.90;18.47;;;18.80;99.90;;;19.17;100.00;101568.63;4941132;29;20440;-74
2022/08/25 06:03:52;;;;;;;22.93;17.43;;;18.90;99.90;;;19.15;100.00;101566.09;4934495;29;20468;-74
2022/08/25 06:06:23;;;;;;;25.70;18.10;;;18.90;99.90;;;19.12;100.00;101561.13;4943726;29;20469;-74
2022/08/25 06:08:53;;;;;;;33.03;17.20;;;18.90;99.90;;;19.21;100.00;101564.31;4940107;28;20451;-74
2022/08/25 06:11:22;;;;;;;32.57;18.50;;;18.90;99.90;;;19.23;100.00;101562.97;4940152;29;20455;-73
2022/08/25 06:13:51;;;;;;;27.20;16.20;;;19.00;99.90;;;19.14;100.00;101558.94;4944348;29;20473;-74
2022/08/25 06:16:20;;;;;;;26.83;18.63;;;18.90;99.90;;;19.16;100.00;101556.81;4944636;29;20427;-74
2022/08/25 06:18:49;;;;;;;26.67;17.50;;;18.90;99.90;;;19.16;100.00;101551.31;4949286;29;20473;-74
2022/08/25 06:21:18;;;;;;;28.40;17.70;;;18.90;99.90;;;19.26;100.00;101557.00;4957300;29;20459;-74
2022/08/25 06:23:48;;;;;;;22.90;16.10;;;19.00;99.90;;;19.33;100.00;101557.69;4956522;29;21031;-75
2022/08/25 06:26:22;;;;;;;30.20;18.13;;;19.00;99.90;;;19.44;100.00;101559.59;4958454;29;20439;-73
2022/08/25 06:28:52;;;;;;;25.03;18.57;;;19.20;99.90;;;19.42;100.00;101561.72;4959400;29;20494;-74
2022/08/25 06:31:22;;;;;;;29.00;17.90;;;19.20;99.90;;;19.37;100.00;101556.13;4952045;29;20437;-75
2022/08/25 06:33:52;;;;;;;25.23;18.80;;;19.20;99.90;;;19.43;100.00;101549.66;4957383;28;20575;-74
2022/08/25 06:36:21;;;;;;;31.07;20.03;;;19.20;99.90;;;19.45;100.00;101550.28;4953827;29;20432;-74
2022/08/25 06:38:53;;;;;;;30.93;18.50;;;19.20;99.90;;;19.49;100.00;101553.38;4950984;29;20464;-75
2022/08/25 06:41:24;;;;;;;33.33;20.17;;;19.20;99.90;;;19.46;100.00;101557.41;4956679;29;20476;-73
2022/08/25 06:44:05;;;;;;;29.73;19.43;;;19.30;99.90;;;19.61;100.00;101558.78;4959253;28;20463;-76
2022/08/25 06:46:34;;;;;;;28.10;19.30;;;19.30;99.90;;;19.69;100.00;101559.25;4957673;29;20480;-75
2022/08/25 06:49:06;;;;;;;34.53;19.07;;;19.40;99.90;;;19.80;100.00;101565.78;4955602;29;20456;-75
2022/08/25 06:51:36;;;;;;;24.50;17.50;;;19.50;99.90;;;19.91;100.00;101571.19;4959818;28;20441;-74
2022/08/25 06:54:07;;;;;;;24.50;16.97;;;19.50;99.90;;;20.01;100.00;101567.78;4955978;29;20456;-75
2022/08/25 06:56:40;;;;;;;25.97;18.50;;;19.70;99.90;;;20.19;99.19;101573.03;4963748;29;20971;-75
2022/08/25 06:59:10;;;;;;;27.20;17.83;;;19.80;99.90;;;20.22;98.94;101572.53;4966049;29;20448;-74
2022/08/25 07:01:40;;;;;;;31.40;19.90;;;19.90;99.90;;;20.36;97.97;101573.91;4953513;28;20441;-72
2022/08/25 07:04:12;;;;;;;33.20;20.70;;;20.00;99.90;;;20.52;96.32;101571.41;4964676;29;20454;-73
2022/08/25 07:06:43;;;;;;;26.63;17.20;;;20.10;99.90;;;20.44;96.13;101574.56;4957354;28;20460;-75
2022/08/25 07:09:14;;;;;;;28.77;19.60;;;20.10;99.90;;;20.41;96.57;101575.06;4961294;29;20443;-75
2022/08/25 07:11:45;;;;;;;31.50;18.87;;;20.10;99.90;;;20.58;95.89;101565.72;4956431;28;20435;-74
2022/08/25 07:14:18;;;;;;;32.07;18.13;;;20.20;99.90;;;20.61;95.26;101565.22;4955979;29;20472;-74
2022/08/25 07:16:47;;;;;;;31.07;18.80;;;20.30;99.90;;;20.54;95.20;101561.81;4948371;29;20817;-73
2022/08/25 07:19:20;;;;;;;26.90;19.63;;;20.30;99.90;;;20.53;95.62;101556.53;4936487;29;20452;-74
2022/08/25 07:21:53;;;;;;;29.70;19.10;;;20.30;99.90;;;20.77;94.67;101553.34;4938224;29;20417;-76
2022/08/25 07:24:23;;;;;;;31.00;20.00;;;20.40;99.90;;;20.94;93.88;101553.28;4939489;28;20883;-76
2022/08/25 07:26:54;;;;;;;31.07;19.43;;;20.50;99.90;;;21.19;92.68;101559.16;4943126;29;20872;-77
2022/08/25 07:29:28;;;;;;;25.60;16.13;;;20.60;99.90;;;21.33;89.97;101545.00;4942185;29;21069;-73
2022/08/25 07:32:03;;;;;;;28.17;18.60;;;20.80;99.90;;;21.37;90.05;101543.38;4942927;28;20456;-74
2022/08/25 07:37:23;;;;;;;27.00;18.53;;;21.10;99.90;;;21.30;90.04;101551.03;4939007;29;20475;-75
2022/08/25 07:40:17;;;;;;;31.20;18.90;;;21.00;99.90;;;21.25;90.54;101544.34;4942428;29;20492;-75
2022/08/25 07:42:50;;;;;;;26.90;17.57;;;21.10;99.90;;;21.34;90.85;101549.41;4935215;29;20507;-74
2022/08/25 07:45:28;;;;;;;30.30;20.20;;;21.00;99.90;;;21.51;89.12;101547.41;4942310;29;20448;-75
2022/08/25 07:48:00;;;;;;;34.10;21.13;;;21.10;99.90;;;21.68;88.75;101545.41;4944907;29;20496;-76
2022/08/25 07:50:30;;;;;;;32.17;20.03;;;21.20;99.90;;;21.78;87.26;101545.50;4955816;29;20538;-75
2022/08/25 07:53:02;;;;;;;26.17;18.20;;;21.30;99.90;;;21.72;88.19;101549.28;4954104;29;20505;-73
2022/08/25 07:55:32;;;;;;;30.23;19.63;;;21.40;99.90;;;21.91;87.06;101550.56;4958839;29;20453;-74
2022/08/25 07:58:05;;;;;;;28.60;17.83;;;21.50;99.90;;;21.98;85.90;101553.97;4956483;29;20460;-74
2022/08/25 08:00:38;;;;;;;29.13;19.30;;;21.60;99.90;;;21.96;86.35;101545.13;4957118;29;20449;-74
2022/08/25 08:03:10;;;;;;;27.13;17.10;;;21.60;99.90;;;22.30;84.05;101555.88;4963874;28;20467;-74
2022/08/25 08:05:59;;;;;;;24.70;17.50;;;21.70;99.90;;;22.18;84.40;101547.78;4952003;29;20436;-74
2022/08/25 08:08:29;;;;;;;24.03;19.23;;;21.80;99.90;;;21.98;85.29;101553.97;4947616;29;20937;-75
2022/08/25 08:11:00;;;;;;;29.33;20.60;;;21.80;99.90;;;22.10;84.79;101540.84;4934328;29;20455;-74
2022/08/25 08:13:34;;;;;;;28.90;19.27;;;21.80;99.90;;;22.29;84.51;101554.22;4932870;29;20547;-72
2022/08/25 08:16:10;;;;;;;27.70;19.17;;;21.80;99.90;;;22.38;83.42;101549.88;4933146;29;20487;-74
2022/08/25 08:18:41;;;;;;;29.10;19.30;;;21.90;99.90;;;22.51;83.20;101552.19;4943273;29;20483;-75
2022/08/25 08:21:13;;;;;;;29.73;20.10;;;22.00;99.90;;;22.67;81.62;101537.38;4936634;29;20903;-72
2022/08/25 08:23:48;;;;;;;24.90;19.80;;;22.20;99.90;;;22.83;81.04;101552.97;4934481;28;20588;-72
2022/08/25 08:26:19;;;;;;;25.17;18.27;;;22.30;99.90;;;22.91;80.35;101541.41;4933133;29;20456;-74
2022/08/25 08:28:50;;;;;;;34.33;20.93;;;22.40;99.90;;;22.80;81.23;101539.69;4932891;29;20536;-75
2022/08/25 08:31:22;;;;;;;26.33;18.10;;;22.50;99.90;;;22.99;80.32;101539.25;4933203;29;20492;-74
2022/08/25 08:33:56;;;;;;;23.97;18.20;;;22.60;99.90;;;23.17;79.39;101534.06;4939351;28;20480;-75
2022/08/25 08:36:27;;;;;;;25.43;19.07;;;22.70;99.90;;;23.09;80.48;101519.97;4940393;29;20448;-75
2022/08/25 08:38:57;;;;;;;21.40;17.43;;;22.60;99.90;;;23.56;77.47;101520.69;4937554;29;20441;-75
2022/08/25 08:45:06;;;;;;;24.67;19.17;;;23.20;99.90;;;24.04;75.54;101518.50;4938109;29;20519;-75
2022/08/25 08:47:54;;;;;;;21.47;16.00;;;23.40;99.90;;;24.29;74.14;101518.53;4935622;29;20472;-72
2022/08/25 08:50:33;;;;;;;29.50;15.93;;;23.70;99.90;;;24.50;73.15;101517.38;4932063;29;20450;-74
2022/08/25 08:53:11;;;;;;;20.50;14.60;;;23.90;99.90;;;24.10;74.39;101515.47;4935815;29;20487;-74
2022/08/25 08:55:48;;;;;;;19.40;14.50;;;23.80;99.90;;;23.94;74.61;101518.50;4937511;29;20516;-75
2022/08/25 08:58:25;;;;;;;17.23;14.67;;;23.70;99.90;;;24.03;74.45;101514.91;4936509;29;20929;-75
2022/08/25 09:01:00;;;;;;;16.60;13.30;;;23.70;99.90;;;24.28;73.81;101516.03;4932315;29;20430;-75
2022/08/25 09:03:40;;;;;;;18.63;13.40;;;23.80;99.90;;;24.33;73.46;101524.31;4945891;29;20476;-74
2022/08/25 09:06:17;;;;;;;15.00;11.70;;;24.00;99.90;;;24.64;72.69;101520.41;4936666;29;20463;-74
2022/08/25 09:08:47;;;;;;;15.07;12.50;;;24.00;99.90;;;25.19;70.34;101519.38;4938796;29;20476;-75
2022/08/25 09:11:30;;;;;;;16.60;14.80;;;24.40;99.90;;;25.04;70.43;101519.44;4941405;29;20930;-74
2022/08/25 09:14:19;;;;;;;17.03;13.37;;;24.50;99.90;;;24.92;70.27;101516.19;4939633;29;20992;-75
2022/08/25 09:17:01;;;;;;;15.80;13.10;;;24.60;99.90;;;24.49;72.51;101518.50;4939730;29;20444;-75
2022/08/25 09:20:14;;;;;;;13.93;12.53;;;24.30;99.90;;;24.97;71.43;101513.41;4935173;29;20477;-78
2022/08/25 09:23:01;;;;;;;17.20;11.83;;;24.40;99.90;;;24.65;71.28;101509.03;4911096;29;20472;-75
2022/08/25 09:25:51;;;;;;;14.33;11.80;;;24.50;99.90;;;24.71;71.61;101509.84;4938000;29;20476;-77
2022/08/25 09:28:32;;;;;;;16.53;12.60;;;24.30;99.90;;;25.08;70.29;101503.91;4933539;29;20975;-74
2022/08/25 09:31:04;;;;;;;16.70;12.83;;;24.50;99.90;;;25.02;70.43;101510.59;4944242;29;20791;-75
2022/08/25 09:33:35;;;;;;;16.73;13.77;;;24.60;99.90;;;25.12;69.49;101507.78;4938560;29;20857;-74
2022/08/25 09:36:06;;;;;;;15.20;13.70;;;24.80;99.90;;;25.11;69.37;101508.91;4936401;29;20456;-74
2022/08/25 09:38:37;;;;;;;17.43;13.10;;;24.70;99.90;;;24.97;70.13;101507.84;4936669;29;20483;-75
2022/08/25 09:41:10;;;;;;;15.23;13.67;;;24.70;99.90;;;25.13;69.71;101501.13;4937264;29;20441;-75
2022/08/25 09:43:44;;;;;;;17.43;13.67;;;24.60;99.90;;;25.46;68.49;101505.91;4939765;28;20464;-75
2022/08/25 09:46:16;;;;;;;14.67;11.43;;;24.80;99.90;;;25.50;68.37;101504.25;4937563;29;20443;-75
2022/08/25 09:48:54;;;;;;;15.17;13.23;;;24.80;99.90;;;25.64;67.60;101509.16;4936583;29;21004;-75
2022/08/25 09:51:29;;;;;;;15.80;12.87;;;25.00;99.90;;;25.88;66.78;101501.78;4930545;29;20448;-75
2022/08/25 09:54:23;;;;;;;14.73;11.80;;;25.40;99.90;;;26.06;66.03;101497.44;4936048;29;20483;-74
2022/08/25 09:57:30;;;;;;;15.03;11.70;;;25.40;99.90;;;26.34;64.83;101491.94;4936321;29;20983;-74
2022/08/25 10:00:17;;;;;;;13.60;12.20;;;25.70;99.90;;;26.46;63.97;101490.72;4939590;28;20455;-75
2022/08/25 10:03:05;;;;;;;17.17;12.97;;;25.70;99.90;;;26.48;63.69;101489.28;4937038;29;20852;-74
2022/08/25 10:05:58;;;;;;;19.43;12.50;;;26.00;99.90;;;26.30;64.82;101488.09;4938551;29;20813;-76
2022/08/25 10:08:36;;;;;;;14.20;12.80;;;25.80;99.90;;;25.50;67.40;101486.78;4936084;29;20475;-75
2022/08/25 10:11:13;;;;;;;13.10;11.77;;;25.50;99.90;;;24.47;71.16;101481.97;4939547;29;20484;-75
2022/08/25 10:13:49;;;;;;;15.77;11.20;;;24.70;99.90;;;24.37;71.63;101482.00;4932352;29;20809;-75
2022/08/25 10:16:26;;;;;;;15.07;11.73;;;24.30;99.90;;;24.33;71.97;101478.13;4938039;28;20469;-73
2022/08/25 10:19:07;;;;;;;13.10;11.57;;;24.20;99.90;;;24.42;71.23;101475.63;4936508;29;20925;-75
2022/08/25 10:21:40;;;;;;;15.77;14.17;;;24.10;99.90;;;24.74;70.41;101475.25;4935714;29;20479;-74
2022/08/25 10:24:12;;;;;;;15.50;11.90;;;24.20;99.90;;;25.16;69.50;101466.50;4936311;29;20976;-74
2022/08/25 10:27:03;;;;;;;13.97;11.87;;;24.60;99.90;;;25.61;67.87;101468.19;4936879;29;20491;-75
2022/08/25 10:30:08;;;;;;;12.30;10.17;;;24.90;99.90;;;26.18;65.38;101468.22;4935183;29;20498;-74
2022/08/25 10:32:59;;;;;;;12.97;11.67;;;25.40;99.90;;;25.84;65.78;101478.53;4927967;29;20469;-74